sensor_id;sensor_type;location;lat;lon;timestamp;P1;durP1;ratioP1;P2;durP2;ratioP2
51614;SDS011;37695;52.960;6.188;2024-01-30T00:02:00;13.55;;;7.07;;
51614;SDS011;37695;52.960;6.188;2024-01-30T00:04:26;12.55;;;6.95;;
51614;SDS011;37695;52.960;6.188;2024-01-30T00:06:52;12.38;;;7.05;;
51614;SDS011;37695;52.960;6.188;2024-01-30T00:09:18;13.90;;;6.80;;
51614;SDS011;37695;52.960;6.188;2024-01-30T00:11:44;13.05;;;7.32;;
51614;SDS011;37695;52.960;6.188;2024-01-30T00:14:10;13.85;;;7.00;;
51614;SDS011;37695;52.960;6.188;2024-01-30T00:16:36;13.48;;;7.00;;
51614;SDS011;37695;52.960;6.188;2024-01-30T00:19:02;12.40;;;7.18;;
51614;SDS011;37695;52.960;6.188;2024-01-30T00:21:28;15.73;;;6.88;;
51614;SDS011;37695;52.960;6.188;2024-01-30T00:23:54;15.30;;;7.43;;
51614;SDS011;37695;52.960;6.188;2024-01-30T00:26:20;12.10;;;7.05;;
51614;SDS011;37695;52.960;6.188;2024-01-30T00:28:46;12.65;;;6.70;;
51614;SDS011;37695;52.960;6.188;2024-01-30T00:31:12;11.38;;;5.93;;
51614;SDS011;37695;52.960;6.188;2024-01-30T00:33:39;10.05;;;6.18;;
51614;SDS011;37695;52.960;6.188;2024-01-30T00:36:05;11.52;;;6.90;;
51614;SDS011;37695;52.960;6.188;2024-01-30T00:38:34;12.85;;;7.10;;
51614;SDS011;37695;52.960;6.188;2024-01-30T00:41:00;12.73;;;7.30;;
51614;SDS011;37695;52.960;6.188;2024-01-30T00:43:29;11.73;;;6.50;;
51614;SDS011;37695;52.960;6.188;2024-01-30T00:45:56;12.75;;;6.28;;
51614;SDS011;37695;52.960;6.188;2024-01-30T00:48:23;11.38;;;6.57;;
51614;SDS011;37695;52.960;6.188;2024-01-30T00:50:49;13.40;;;6.43;;
51614;SDS011;37695;52.960;6.188;2024-01-30T00:53:15;12.07;;;6.53;;
51614;SDS011;37695;52.960;6.188;2024-01-30T00:55:41;14.10;;;7.30;;
51614;SDS011;37695;52.960;6.188;2024-01-30T00:58:07;11.70;;;6.95;;
51614;SDS011;37695;52.960;6.188;2024-01-30T01:00:33;12.70;;;6.72;;
51614;SDS011;37695;52.960;6.188;2024-01-30T01:02:59;11.82;;;6.93;;
51614;SDS011;37695;52.960;6.188;2024-01-30T01:05:25;15.00;;;7.03;;
51614;SDS011;37695;52.960;6.188;2024-01-30T01:07:52;12.40;;;7.25;;
51614;SDS011;37695;52.960;6.188;2024-01-30T01:10:18;12.80;;;7.10;;
51614;SDS011;37695;52.960;6.188;2024-01-30T01:12:44;13.30;;;6.88;;
51614;SDS011;37695;52.960;6.188;2024-01-30T01:15:10;11.55;;;6.72;;
51614;SDS011;37695;52.960;6.188;2024-01-30T01:17:37;11.50;;;6.43;;
51614;SDS011;37695;52.960;6.188;2024-01-30T01:20:04;15.05;;;7.22;;
51614;SDS011;37695;52.960;6.188;2024-01-30T01:22:33;13.48;;;6.38;;
51614;SDS011;37695;52.960;6.188;2024-01-30T01:25:00;11.25;;;6.53;;
51614;SDS011;37695;52.960;6.188;2024-01-30T01:27:26;11.43;;;6.45;;
51614;SDS011;37695;52.960;6.188;2024-01-30T01:29:52;11.70;;;7.03;;
51614;SDS011;37695;52.960;6.188;2024-01-30T01:32:19;14.90;;;6.57;;
51614;SDS011;37695;52.960;6.188;2024-01-30T01:34:45;13.80;;;6.97;;
51614;SDS011;37695;52.960;6.188;2024-01-30T01:37:11;15.80;;;7.50;;
51614;SDS011;37695;52.960;6.188;2024-01-30T01:39:37;12.93;;;6.85;;
51614;SDS011;37695;52.960;6.188;2024-01-30T01:42:03;14.52;;;6.80;;
51614;SDS011;37695;52.960;6.188;2024-01-30T01:44:29;13.05;;;7.07;;
51614;SDS011;37695;52.960;6.188;2024-01-30T01:46:55;12.73;;;7.25;;
51614;SDS011;37695;52.960;6.188;2024-01-30T01:49:22;12.48;;;6.60;;
51614;SDS011;37695;52.960;6.188;2024-01-30T01:51:52;13.77;;;7.35;;
51614;SDS011;37695;52.960;6.188;2024-01-30T01:54:21;14.32;;;7.50;;
51614;SDS011;37695;52.960;6.188;2024-01-30T01:56:48;12.00;;;6.22;;
51614;SDS011;37695;52.960;6.188;2024-01-30T01:59:14;12.43;;;6.47;;
51614;SDS011;37695;52.960;6.188;2024-01-30T02:01:40;11.40;;;6.65;;
51614;SDS011;37695;52.960;6.188;2024-01-30T02:04:07;13.43;;;7.07;;
51614;SDS011;37695;52.960;6.188;2024-01-30T02:06:34;15.93;;;7.32;;
51614;SDS011;37695;52.960;6.188;2024-01-30T02:09:00;13.32;;;7.18;;
51614;SDS011;37695;52.960;6.188;2024-01-30T02:11:26;12.80;;;7.25;;
51614;SDS011;37695;52.960;6.188;2024-01-30T02:13:53;11.55;;;6.93;;
51614;SDS011;37695;52.960;6.188;2024-01-30T02:16:19;12.43;;;7.18;;
51614;SDS011;37695;52.960;6.188;2024-01-30T02:18:45;13.45;;;6.75;;
51614;SDS011;37695;52.960;6.188;2024-01-30T02:21:16;13.35;;;6.90;;
51614;SDS011;37695;52.960;6.188;2024-01-30T02:23:43;13.45;;;7.30;;
51614;SDS011;37695;52.960;6.188;2024-01-30T02:26:09;13.75;;;7.28;;
51614;SDS011;37695;52.960;6.188;2024-01-30T02:28:37;12.65;;;7.20;;
51614;SDS011;37695;52.960;6.188;2024-01-30T02:31:03;12.63;;;7.07;;
51614;SDS011;37695;52.960;6.188;2024-01-30T02:33:29;14.35;;;7.53;;
51614;SDS011;37695;52.960;6.188;2024-01-30T02:35:55;12.43;;;6.78;;
51614;SDS011;37695;52.960;6.188;2024-01-30T02:38:21;11.95;;;6.90;;
51614;SDS011;37695;52.960;6.188;2024-01-30T02:40:48;14.38;;;6.85;;
51614;SDS011;37695;52.960;6.188;2024-01-30T02:43:14;14.95;;;8.00;;
51614;SDS011;37695;52.960;6.188;2024-01-30T02:45:40;14.45;;;7.40;;
51614;SDS011;37695;52.960;6.188;2024-01-30T02:48:06;13.50;;;6.95;;
51614;SDS011;37695;52.960;6.188;2024-01-30T02:50:32;12.40;;;6.38;;
51614;SDS011;37695;52.960;6.188;2024-01-30T02:52:58;12.50;;;6.75;;
51614;SDS011;37695;52.960;6.188;2024-01-30T02:55:24;12.35;;;6.97;;
51614;SDS011;37695;52.960;6.188;2024-01-30T02:57:50;13.10;;;7.18;;
51614;SDS011;37695;52.960;6.188;2024-01-30T03:00:16;15.07;;;6.53;;
51614;SDS011;37695;52.960;6.188;2024-01-30T03:02:42;12.07;;;6.85;;
51614;SDS011;37695;52.960;6.188;2024-01-30T03:05:08;12.70;;;7.03;;
51614;SDS011;37695;52.960;6.188;2024-01-30T03:07:34;11.43;;;6.43;;
51614;SDS011;37695;52.960;6.188;2024-01-30T03:10:01;13.88;;;6.50;;
51614;SDS011;37695;52.960;6.188;2024-01-30T03:12:27;15.15;;;8.18;;
51614;SDS011;37695;52.960;6.188;2024-01-30T03:14:53;10.55;;;6.90;;
51614;SDS011;37695;52.960;6.188;2024-01-30T03:17:19;11.88;;;6.90;;
51614;SDS011;37695;52.960;6.188;2024-01-30T03:19:45;12.43;;;6.68;;
51614;SDS011;37695;52.960;6.188;2024-01-30T03:22:11;14.85;;;7.07;;
51614;SDS011;37695;52.960;6.188;2024-01-30T03:24:37;12.32;;;6.82;;
51614;SDS011;37695;52.960;6.188;2024-01-30T03:27:03;13.65;;;7.45;;
51614;SDS011;37695;52.960;6.188;2024-01-30T03:29:29;13.02;;;6.78;;
51614;SDS011;37695;52.960;6.188;2024-01-30T03:31:55;10.95;;;6.30;;
51614;SDS011;37695;52.960;6.188;2024-01-30T03:34:21;11.88;;;6.70;;
51614;SDS011;37695;52.960;6.188;2024-01-30T03:36:47;12.98;;;6.32;;
51614;SDS011;37695;52.960;6.188;2024-01-30T03:39:13;14.40;;;7.05;;
51614;SDS011;37695;52.960;6.188;2024-01-30T03:41:41;12.43;;;6.65;;
51614;SDS011;37695;52.960;6.188;2024-01-30T03:44:08;12.35;;;6.80;;
51614;SDS011;37695;52.960;6.188;2024-01-30T03:46:34;12.02;;;6.57;;
51614;SDS011;37695;52.960;6.188;2024-01-30T03:49:00;13.07;;;6.80;;
51614;SDS011;37695;52.960;6.188;2024-01-30T03:51:26;12.43;;;6.10;;
51614;SDS011;37695;52.960;6.188;2024-01-30T03:53:52;16.13;;;6.63;;
51614;SDS011;37695;52.960;6.188;2024-01-30T03:56:18;11.05;;;6.40;;
51614;SDS011;37695;52.960;6.188;2024-01-30T03:58:44;14.50;;;6.93;;
51614;SDS011;37695;52.960;6.188;2024-01-30T04:01:13;13.27;;;7.15;;
51614;SDS011;37695;52.960;6.188;2024-01-30T04:03:40;13.10;;;6.55;;
51614;SDS011;37695;52.960;6.188;2024-01-30T04:06:06;10.15;;;6.38;;
51614;SDS011;37695;52.960;6.188;2024-01-30T04:08:32;13.88;;;7.13;;
51614;SDS011;37695;52.960;6.188;2024-01-30T04:10:58;11.65;;;6.18;;
51614;SDS011;37695;52.960;6.188;2024-01-30T04:13:24;12.45;;;6.47;;
51614;SDS011;37695;52.960;6.188;2024-01-30T04:15:50;12.63;;;6.93;;
51614;SDS011;37695;52.960;6.188;2024-01-30T04:18:16;12.40;;;7.30;;
51614;SDS011;37695;52.960;6.188;2024-01-30T04:20:42;13.38;;;6.97;;
51614;SDS011;37695;52.960;6.188;2024-01-30T04:23:08;11.18;;;6.22;;
51614;SDS011;37695;52.960;6.188;2024-01-30T04:25:34;11.63;;;6.20;;
51614;SDS011;37695;52.960;6.188;2024-01-30T04:28:00;12.85;;;7.30;;
51614;SDS011;37695;52.960;6.188;2024-01-30T04:30:26;11.80;;;6.60;;
51614;SDS011;37695;52.960;6.188;2024-01-30T04:32:52;10.25;;;5.70;;
51614;SDS011;37695;52.960;6.188;2024-01-30T04:35:18;10.25;;;6.28;;
51614;SDS011;37695;52.960;6.188;2024-01-30T04:37:48;11.60;;;6.38;;
51614;SDS011;37695;52.960;6.188;2024-01-30T04:40:14;13.07;;;6.47;;
51614;SDS011;37695;52.960;6.188;2024-01-30T04:42:40;10.30;;;5.90;;
51614;SDS011;37695;52.960;6.188;2024-01-30T04:45:06;10.55;;;5.80;;
51614;SDS011;37695;52.960;6.188;2024-01-30T04:47:32;10.25;;;6.15;;
51614;SDS011;37695;52.960;6.188;2024-01-30T04:49:58;13.02;;;5.38;;
51614;SDS011;37695;52.960;6.188;2024-01-30T04:52:24;12.02;;;5.70;;
51614;SDS011;37695;52.960;6.188;2024-01-30T04:54:50;9.35;;;5.43;;
51614;SDS011;37695;52.960;6.188;2024-01-30T04:57:16;10.75;;;6.22;;
51614;SDS011;37695;52.960;6.188;2024-01-30T04:59:42;12.52;;;6.10;;
51614;SDS011;37695;52.960;6.188;2024-01-30T05:02:08;9.35;;;5.63;;
51614;SDS011;37695;52.960;6.188;2024-01-30T05:04:34;10.70;;;5.65;;
51614;SDS011;37695;52.960;6.188;2024-01-30T05:07:00;11.13;;;5.68;;
51614;SDS011;37695;52.960;6.188;2024-01-30T05:09:26;10.40;;;5.53;;
51614;SDS011;37695;52.960;6.188;2024-01-30T05:11:53;9.20;;;5.28;;
51614;SDS011;37695;52.960;6.188;2024-01-30T05:14:19;11.27;;;5.85;;
51614;SDS011;37695;52.960;6.188;2024-01-30T05:16:45;9.20;;;5.32;;
51614;SDS011;37695;52.960;6.188;2024-01-30T05:19:13;11.35;;;5.70;;
51614;SDS011;37695;52.960;6.188;2024-01-30T05:21:39;13.82;;;5.95;;
51614;SDS011;37695;52.960;6.188;2024-01-30T05:24:05;10.05;;;5.40;;
51614;SDS011;37695;52.960;6.188;2024-01-30T05:26:31;10.80;;;5.97;;
51614;SDS011;37695;52.960;6.188;2024-01-30T05:28:57;10.90;;;6.03;;
51614;SDS011;37695;52.960;6.188;2024-01-30T05:31:23;12.50;;;5.90;;
51614;SDS011;37695;52.960;6.188;2024-01-30T05:33:51;11.95;;;6.15;;
51614;SDS011;37695;52.960;6.188;2024-01-30T05:36:17;11.43;;;5.82;;
51614;SDS011;37695;52.960;6.188;2024-01-30T05:38:43;11.18;;;5.65;;
51614;SDS011;37695;52.960;6.188;2024-01-30T05:41:09;13.40;;;6.00;;
51614;SDS011;37695;52.960;6.188;2024-01-30T05:43:35;9.18;;;5.53;;
51614;SDS011;37695;52.960;6.188;2024-01-30T05:46:01;10.40;;;6.18;;
51614;SDS011;37695;52.960;6.188;2024-01-30T05:48:27;12.20;;;5.40;;
51614;SDS011;37695;52.960;6.188;2024-01-30T05:50:53;10.60;;;5.53;;
51614;SDS011;37695;52.960;6.188;2024-01-30T05:53:19;10.82;;;5.43;;
51614;SDS011;37695;52.960;6.188;2024-01-30T05:55:45;11.05;;;5.95;;
51614;SDS011;37695;52.960;6.188;2024-01-30T05:58:12;9.95;;;5.30;;
51614;SDS011;37695;52.960;6.188;2024-01-30T06:00:38;11.57;;;5.38;;
51614;SDS011;37695;52.960;6.188;2024-01-30T06:03:04;10.77;;;5.38;;
51614;SDS011;37695;52.960;6.188;2024-01-30T06:05:30;9.18;;;4.80;;
51614;SDS011;37695;52.960;6.188;2024-01-30T06:07:56;10.93;;;5.38;;
51614;SDS011;37695;52.960;6.188;2024-01-30T06:10:22;10.05;;;5.75;;
51614;SDS011;37695;52.960;6.188;2024-01-30T06:12:48;9.40;;;5.07;;
51614;SDS011;37695;52.960;6.188;2024-01-30T06:15:14;9.73;;;5.15;;
51614;SDS011;37695;52.960;6.188;2024-01-30T06:17:40;9.48;;;4.93;;
51614;SDS011;37695;52.960;6.188;2024-01-30T06:20:06;8.60;;;5.22;;
51614;SDS011;37695;52.960;6.188;2024-01-30T06:22:32;11.70;;;5.88;;
51614;SDS011;37695;52.960;6.188;2024-01-30T06:24:58;9.75;;;5.00;;
51614;SDS011;37695;52.960;6.188;2024-01-30T06:27:24;9.60;;;4.60;;
51614;SDS011;37695;52.960;6.188;2024-01-30T06:29:50;11.10;;;5.68;;
51614;SDS011;37695;52.960;6.188;2024-01-30T06:32:16;8.90;;;5.05;;
51614;SDS011;37695;52.960;6.188;2024-01-30T06:34:42;12.57;;;5.20;;
51614;SDS011;37695;52.960;6.188;2024-01-30T06:37:09;9.80;;;5.65;;
51614;SDS011;37695;52.960;6.188;2024-01-30T06:39:35;8.30;;;4.88;;
51614;SDS011;37695;52.960;6.188;2024-01-30T06:42:01;9.07;;;5.22;;
51614;SDS011;37695;52.960;6.188;2024-01-30T06:44:27;10.73;;;5.35;;
51614;SDS011;37695;52.960;6.188;2024-01-30T06:46:53;11.52;;;5.65;;
51614;SDS011;37695;52.960;6.188;2024-01-30T06:49:19;11.57;;;5.22;;
51614;SDS011;37695;52.960;6.188;2024-01-30T06:51:47;8.27;;;4.45;;
51614;SDS011;37695;52.960;6.188;2024-01-30T06:54:13;9.02;;;5.03;;
51614;SDS011;37695;52.960;6.188;2024-01-30T06:56:39;11.88;;;5.22;;
51614;SDS011;37695;52.960;6.188;2024-01-30T06:59:05;11.15;;;5.53;;
51614;SDS011;37695;52.960;6.188;2024-01-30T07:01:31;10.80;;;5.18;;
51614;SDS011;37695;52.960;6.188;2024-01-30T07:03:57;9.10;;;4.95;;
51614;SDS011;37695;52.960;6.188;2024-01-30T07:06:24;11.00;;;5.20;;
51614;SDS011;37695;52.960;6.188;2024-01-30T07:08:50;9.18;;;5.10;;
51614;SDS011;37695;52.960;6.188;2024-01-30T07:11:19;9.05;;;5.22;;
51614;SDS011;37695;52.960;6.188;2024-01-30T07:13:47;10.50;;;5.53;;
51614;SDS011;37695;52.960;6.188;2024-01-30T07:16:14;10.88;;;5.35;;
51614;SDS011;37695;52.960;6.188;2024-01-30T07:18:40;10.07;;;5.45;;
51614;SDS011;37695;52.960;6.188;2024-01-30T07:21:06;9.80;;;5.15;;
51614;SDS011;37695;52.960;6.188;2024-01-30T07:23:32;10.63;;;5.22;;
51614;SDS011;37695;52.960;6.188;2024-01-30T07:26:00;10.00;;;5.45;;
51614;SDS011;37695;52.960;6.188;2024-01-30T07:28:26;8.57;;;4.95;;
51614;SDS011;37695;52.960;6.188;2024-01-30T07:30:52;11.23;;;5.20;;
51614;SDS011;37695;52.960;6.188;2024-01-30T07:33:18;12.65;;;5.60;;
51614;SDS011;37695;52.960;6.188;2024-01-30T07:35:45;11.55;;;5.32;;
51614;SDS011;37695;52.960;6.188;2024-01-30T07:38:11;11.32;;;5.57;;
51614;SDS011;37695;52.960;6.188;2024-01-30T07:40:38;9.20;;;5.00;;
51614;SDS011;37695;52.960;6.188;2024-01-30T07:43:04;7.95;;;4.50;;
51614;SDS011;37695;52.960;6.188;2024-01-30T07:45:30;10.40;;;5.50;;
51614;SDS011;37695;52.960;6.188;2024-01-30T07:47:58;9.20;;;4.88;;
51614;SDS011;37695;52.960;6.188;2024-01-30T07:50:27;10.45;;;5.57;;
51614;SDS011;37695;52.960;6.188;2024-01-30T07:52:53;10.35;;;5.57;;
51614;SDS011;37695;52.960;6.188;2024-01-30T07:55:22;10.18;;;5.30;;
51614;SDS011;37695;52.960;6.188;2024-01-30T07:57:56;12.57;;;5.10;;
51614;SDS011;37695;52.960;6.188;2024-01-30T08:00:23;8.55;;;4.72;;
51614;SDS011;37695;52.960;6.188;2024-01-30T08:02:53;8.93;;;4.90;;
51614;SDS011;37695;52.960;6.188;2024-01-30T08:05:21;8.63;;;4.75;;
51614;SDS011;37695;52.960;6.188;2024-01-30T08:07:48;10.13;;;5.55;;
51614;SDS011;37695;52.960;6.188;2024-01-30T08:10:14;8.43;;;4.47;;
51614;SDS011;37695;52.960;6.188;2024-01-30T08:12:41;10.00;;;5.20;;
51614;SDS011;37695;52.960;6.188;2024-01-30T08:15:07;8.93;;;4.60;;
51614;SDS011;37695;52.960;6.188;2024-01-30T08:17:33;9.05;;;5.05;;
51614;SDS011;37695;52.960;6.188;2024-01-30T08:19:59;9.60;;;5.07;;
51614;SDS011;37695;52.960;6.188;2024-01-30T08:22:25;8.65;;;4.75;;
51614;SDS011;37695;52.960;6.188;2024-01-30T08:24:51;9.77;;;4.70;;
51614;SDS011;37695;52.960;6.188;2024-01-30T08:27:17;11.75;;;5.53;;
51614;SDS011;37695;52.960;6.188;2024-01-30T08:29:43;9.57;;;4.65;;
51614;SDS011;37695;52.960;6.188;2024-01-30T08:32:09;9.95;;;5.18;;
51614;SDS011;37695;52.960;6.188;2024-01-30T08:34:35;11.20;;;5.50;;
51614;SDS011;37695;52.960;6.188;2024-01-30T08:37:02;9.68;;;5.32;;
51614;SDS011;37695;52.960;6.188;2024-01-30T08:39:28;14.52;;;5.53;;
51614;SDS011;37695;52.960;6.188;2024-01-30T08:41:54;11.02;;;5.15;;
51614;SDS011;37695;52.960;6.188;2024-01-30T08:44:20;9.77;;;5.25;;
51614;SDS011;37695;52.960;6.188;2024-01-30T08:46:46;11.55;;;5.32;;
51614;SDS011;37695;52.960;6.188;2024-01-30T08:49:13;11.95;;;5.13;;
51614;SDS011;37695;52.960;6.188;2024-01-30T08:51:41;10.98;;;5.20;;
51614;SDS011;37695;52.960;6.188;2024-01-30T08:54:07;11.45;;;5.32;;
51614;SDS011;37695;52.960;6.188;2024-01-30T08:56:33;10.18;;;5.43;;
51614;SDS011;37695;52.960;6.188;2024-01-30T08:58:59;12.55;;;5.40;;
51614;SDS011;37695;52.960;6.188;2024-01-30T09:01:25;13.02;;;5.93;;
51614;SDS011;37695;52.960;6.188;2024-01-30T09:03:51;11.82;;;5.50;;
51614;SDS011;37695;52.960;6.188;2024-01-30T09:06:17;10.43;;;5.10;;
51614;SDS011;37695;52.960;6.188;2024-01-30T09:08:43;8.45;;;5.20;;
51614;SDS011;37695;52.960;6.188;2024-01-30T09:11:11;13.63;;;5.35;;
51614;SDS011;37695;52.960;6.188;2024-01-30T09:13:38;11.65;;;5.63;;
51614;SDS011;37695;52.960;6.188;2024-01-30T09:16:04;10.88;;;5.25;;
51614;SDS011;37695;52.960;6.188;2024-01-30T09:18:30;11.02;;;5.47;;
51614;SDS011;37695;52.960;6.188;2024-01-30T09:20:56;9.90;;;5.25;;
51614;SDS011;37695;52.960;6.188;2024-01-30T09:23:22;12.85;;;5.32;;
51614;SDS011;37695;52.960;6.188;2024-01-30T09:25:48;11.88;;;5.78;;
51614;SDS011;37695;52.960;6.188;2024-01-30T09:28:14;11.68;;;5.25;;
51614;SDS011;37695;52.960;6.188;2024-01-30T09:30:40;10.25;;;5.50;;
51614;SDS011;37695;52.960;6.188;2024-01-30T09:33:06;10.07;;;5.07;;
51614;SDS011;37695;52.960;6.188;2024-01-30T09:35:32;10.98;;;5.05;;
51614;SDS011;37695;52.960;6.188;2024-01-30T09:37:58;13.10;;;4.93;;
51614;SDS011;37695;52.960;6.188;2024-01-30T09:40:24;12.20;;;4.80;;
51614;SDS011;37695;52.960;6.188;2024-01-30T09:42:51;13.25;;;5.38;;
51614;SDS011;37695;52.960;6.188;2024-01-30T09:45:17;8.70;;;4.70;;
51614;SDS011;37695;52.960;6.188;2024-01-30T09:47:44;14.23;;;5.22;;
51614;SDS011;37695;52.960;6.188;2024-01-30T09:50:11;10.27;;;4.85;;
51614;SDS011;37695;52.960;6.188;2024-01-30T09:52:38;12.00;;;5.35;;
51614;SDS011;37695;52.960;6.188;2024-01-30T09:55:04;10.73;;;5.53;;
51614;SDS011;37695;52.960;6.188;2024-01-30T09:57:31;11.10;;;5.22;;
51614;SDS011;37695;52.960;6.188;2024-01-30T09:59:57;9.07;;;4.75;;
51614;SDS011;37695;52.960;6.188;2024-01-30T10:02:23;13.07;;;5.68;;
51614;SDS011;37695;52.960;6.188;2024-01-30T10:04:50;10.48;;;5.45;;
51614;SDS011;37695;52.960;6.188;2024-01-30T10:07:16;10.18;;;5.50;;
51614;SDS011;37695;52.960;6.188;2024-01-30T10:09:46;9.80;;;5.15;;
51614;SDS011;37695;52.960;6.188;2024-01-30T10:12:12;12.80;;;5.22;;
51614;SDS011;37695;52.960;6.188;2024-01-30T10:14:38;14.35;;;6.25;;
51614;SDS011;37695;52.960;6.188;2024-01-30T10:17:05;12.43;;;5.57;;
51614;SDS011;37695;52.960;6.188;2024-01-30T10:19:31;13.75;;;6.25;;
51614;SDS011;37695;52.960;6.188;2024-01-30T10:21:59;12.77;;;6.05;;
51614;SDS011;37695;52.960;6.188;2024-01-30T10:24:25;9.85;;;4.82;;
51614;SDS011;37695;52.960;6.188;2024-01-30T10:26:51;13.18;;;4.93;;
51614;SDS011;37695;52.960;6.188;2024-01-30T10:29:18;16.30;;;5.68;;
51614;SDS011;37695;52.960;6.188;2024-01-30T10:31:43;11.23;;;5.45;;
51614;SDS011;37695;52.960;6.188;2024-01-30T10:34:09;12.70;;;6.68;;
51614;SDS011;37695;52.960;6.188;2024-01-30T10:36:38;13.95;;;6.13;;
51614;SDS011;37695;52.960;6.188;2024-01-30T10:39:08;10.63;;;4.93;;
51614;SDS011;37695;52.960;6.188;2024-01-30T10:41:39;12.20;;;5.32;;
51614;SDS011;37695;52.960;6.188;2024-01-30T10:44:09;14.75;;;6.13;;
51614;SDS011;37695;52.960;6.188;2024-01-30T10:46:37;10.65;;;5.80;;
51614;SDS011;37695;52.960;6.188;2024-01-30T10:49:03;10.80;;;4.93;;
51614;SDS011;37695;52.960;6.188;2024-01-30T10:51:31;15.15;;;5.85;;
51614;SDS011;37695;52.960;6.188;2024-01-30T10:53:57;11.07;;;5.95;;
51614;SDS011;37695;52.960;6.188;2024-01-30T10:56:23;10.45;;;5.20;;
51614;SDS011;37695;52.960;6.188;2024-01-30T10:58:50;12.20;;;5.68;;
51614;SDS011;37695;52.960;6.188;2024-01-30T11:01:20;13.32;;;6.80;;
51614;SDS011;37695;52.960;6.188;2024-01-30T11:03:54;11.77;;;5.47;;
51614;SDS011;37695;52.960;6.188;2024-01-30T11:06:25;12.27;;;5.13;;
51614;SDS011;37695;52.960;6.188;2024-01-30T11:09:03;8.50;;;4.05;;
51614;SDS011;37695;52.960;6.188;2024-01-30T11:14:27;10.15;;;3.47;;
51614;SDS011;37695;52.960;6.188;2024-01-30T11:16:59;13.45;;;3.80;;
51614;SDS011;37695;52.960;6.188;2024-01-30T11:19:25;9.77;;;3.13;;
51614;SDS011;37695;52.960;6.188;2024-01-30T11:21:55;7.00;;;2.42;;
51614;SDS011;37695;52.960;6.188;2024-01-30T11:24:22;11.05;;;2.95;;
51614;SDS011;37695;52.960;6.188;2024-01-30T11:26:58;5.13;;;2.17;;
51614;SDS011;37695;52.960;6.188;2024-01-30T11:29:27;9.48;;;1.80;;
51614;SDS011;37695;52.960;6.188;2024-01-30T11:31:54;5.70;;;1.50;;
51614;SDS011;37695;52.960;6.188;2024-01-30T11:34:20;6.03;;;1.67;;
51614;SDS011;37695;52.960;6.188;2024-01-30T11:36:52;3.03;;;1.15;;
51614;SDS011;37695;52.960;6.188;2024-01-30T11:39:24;5.38;;;1.50;;
51614;SDS011;37695;52.960;6.188;2024-01-30T11:41:51;4.10;;;1.10;;
51614;SDS011;37695;52.960;6.188;2024-01-30T11:44:21;5.18;;;1.17;;
51614;SDS011;37695;52.960;6.188;2024-01-30T11:46:48;5.10;;;1.02;;
51614;SDS011;37695;52.960;6.188;2024-01-30T11:49:14;5.55;;;1.20;;
51614;SDS011;37695;52.960;6.188;2024-01-30T11:51:40;5.75;;;1.35;;
51614;SDS011;37695;52.960;6.188;2024-01-30T11:54:07;4.32;;;0.95;;
51614;SDS011;37695;52.960;6.188;2024-01-30T11:56:33;5.20;;;0.70;;
51614;SDS011;37695;52.960;6.188;2024-01-30T11:58:58;3.75;;;0.50;;
51614;SDS011;37695;52.960;6.188;2024-01-30T12:01:25;6.10;;;0.57;;
51614;SDS011;37695;52.960;6.188;2024-01-30T12:03:51;2.28;;;0.40;;
51614;SDS011;37695;52.960;6.188;2024-01-30T12:06:17;1.95;;;0.30;;
51614;SDS011;37695;52.960;6.188;2024-01-30T12:08:55;2.25;;;0.32;;
51614;SDS011;37695;52.960;6.188;2024-01-30T12:11:21;2.63;;;0.32;;
51614;SDS011;37695;52.960;6.188;2024-01-30T12:13:47;2.83;;;0.30;;
51614;SDS011;37695;52.960;6.188;2024-01-30T12:16:13;1.52;;;0.40;;
51614;SDS011;37695;52.960;6.188;2024-01-30T12:18:38;2.03;;;0.10;;
51614;SDS011;37695;52.960;6.188;2024-01-30T12:21:04;0.90;;;0.00;;
51614;SDS011;37695;52.960;6.188;2024-01-30T12:23:30;2.00;;;0.10;;
51614;SDS011;37695;52.960;6.188;2024-01-30T12:25:55;2.17;;;0.08;;
51614;SDS011;37695;52.960;6.188;2024-01-30T12:28:22;1.75;;;0.30;;
51614;SDS011;37695;52.960;6.188;2024-01-30T12:30:47;3.35;;;0.10;;
51614;SDS011;37695;52.960;6.188;2024-01-30T12:33:17;2.10;;;0.20;;
51614;SDS011;37695;52.960;6.188;2024-01-30T12:35:47;2.70;;;0.10;;
51614;SDS011;37695;52.960;6.188;2024-01-30T12:38:13;1.20;;;0.30;;
51614;SDS011;37695;52.960;6.188;2024-01-30T12:40:39;1.65;;;0.15;;
51614;SDS011;37695;52.960;6.188;2024-01-30T12:43:05;2.05;;;0.30;;
51614;SDS011;37695;52.960;6.188;2024-01-30T12:45:31;2.83;;;0.50;;
51614;SDS011;37695;52.960;6.188;2024-01-30T12:47:56;4.22;;;0.85;;
51614;SDS011;37695;52.960;6.188;2024-01-30T12:50:23;2.55;;;0.50;;
51614;SDS011;37695;52.960;6.188;2024-01-30T12:52:49;1.80;;;0.35;;
51614;SDS011;37695;52.960;6.188;2024-01-30T12:55:14;5.20;;;1.10;;
51614;SDS011;37695;52.960;6.188;2024-01-30T12:57:40;3.65;;;0.70;;
51614;SDS011;37695;52.960;6.188;2024-01-30T13:00:06;2.78;;;0.52;;
51614;SDS011;37695;52.960;6.188;2024-01-30T13:02:35;5.32;;;0.88;;
51614;SDS011;37695;52.960;6.188;2024-01-30T13:05:02;1.52;;;0.20;;
51614;SDS011;37695;52.960;6.188;2024-01-30T13:07:29;2.90;;;0.20;;
51614;SDS011;37695;52.960;6.188;2024-01-30T13:09:56;2.03;;;0.15;;
51614;SDS011;37695;52.960;6.188;2024-01-30T13:12:27;1.95;;;0.10;;
51614;SDS011;37695;52.960;6.188;2024-01-30T13:14:53;0.93;;;0.10;;
51614;SDS011;37695;52.960;6.188;2024-01-30T13:17:19;2.75;;;0.10;;
51614;SDS011;37695;52.960;6.188;2024-01-30T13:19:45;0.82;;;0.10;;
51614;SDS011;37695;52.960;6.188;2024-01-30T13:22:10;2.15;;;0.10;;
51614;SDS011;37695;52.960;6.188;2024-01-30T13:24:36;4.30;;;0.43;;
51614;SDS011;37695;52.960;6.188;2024-01-30T13:27:02;1.55;;;0.40;;
51614;SDS011;37695;52.960;6.188;2024-01-30T13:29:30;3.00;;;0.22;;
51614;SDS011;37695;52.960;6.188;2024-01-30T13:31:56;4.22;;;0.35;;
51614;SDS011;37695;52.960;6.188;2024-01-30T13:34:22;2.55;;;0.20;;
51614;SDS011;37695;52.960;6.188;2024-01-30T13:36:47;1.38;;;0.20;;
51614;SDS011;37695;52.960;6.188;2024-01-30T13:39:14;1.75;;;0.22;;
51614;SDS011;37695;52.960;6.188;2024-01-30T13:41:41;2.63;;;0.20;;
51614;SDS011;37695;52.960;6.188;2024-01-30T13:44:07;3.72;;;0.28;;
51614;SDS011;37695;52.960;6.188;2024-01-30T13:46:34;4.22;;;0.60;;
51614;SDS011;37695;52.960;6.188;2024-01-30T13:49:00;5.57;;;1.23;;
51614;SDS011;37695;52.960;6.188;2024-01-30T13:51:26;4.97;;;1.20;;
51614;SDS011;37695;52.960;6.188;2024-01-30T13:53:52;5.80;;;1.50;;
51614;SDS011;37695;52.960;6.188;2024-01-30T13:56:19;5.72;;;1.60;;
51614;SDS011;37695;52.960;6.188;2024-01-30T13:58:46;6.20;;;1.30;;
51614;SDS011;37695;52.960;6.188;2024-01-30T14:01:18;3.05;;;0.88;;
51614;SDS011;37695;52.960;6.188;2024-01-30T14:03:43;3.70;;;1.00;;
51614;SDS011;37695;52.960;6.188;2024-01-30T14:06:09;2.40;;;0.75;;
51614;SDS011;37695;52.960;6.188;2024-01-30T14:08:36;2.25;;;0.68;;
51614;SDS011;37695;52.960;6.188;2024-01-30T14:11:02;3.75;;;1.27;;
51614;SDS011;37695;52.960;6.188;2024-01-30T14:13:28;4.50;;;0.68;;
51614;SDS011;37695;52.960;6.188;2024-01-30T14:15:54;3.47;;;0.90;;
51614;SDS011;37695;52.960;6.188;2024-01-30T14:18:20;5.47;;;0.93;;
51614;SDS011;37695;52.960;6.188;2024-01-30T14:20:46;4.82;;;1.02;;
51614;SDS011;37695;52.960;6.188;2024-01-30T14:23:12;3.05;;;0.90;;
51614;SDS011;37695;52.960;6.188;2024-01-30T14:25:37;5.70;;;0.82;;
51614;SDS011;37695;52.960;6.188;2024-01-30T14:28:03;3.13;;;1.02;;
51614;SDS011;37695;52.960;6.188;2024-01-30T14:30:29;6.10;;;1.98;;
51614;SDS011;37695;52.960;6.188;2024-01-30T14:32:54;3.75;;;1.40;;
51614;SDS011;37695;52.960;6.188;2024-01-30T14:35:21;5.70;;;1.65;;
51614;SDS011;37695;52.960;6.188;2024-01-30T14:37:46;7.30;;;1.83;;